Time;durP1;ratioP1;P1;durP2;ratioP2;P2;SDS_P1;SDS_P2;PMS_P1;PMS_P2;Temp;Humidity;BMP_temperature;BMP_pressure;BME280_temperature;BME280_humidity;BME280_pressure;Samples;Min_cycle;Max_cycle;Signal;HPM_P1;HPM_P2
2021/12/29 00:00:09;;;;;;;91.60;13.82;;;8.40;99.90;;;;;;5013185;28;20394;-71
2021/12/29 00:02:35;;;;;;;70.07;12.32;;;8.00;99.90;;;;;;5011689;28;20118;-72
2021/12/29 00:05:01;;;;;;;75.85;13.45;;;8.30;99.90;;;;;;4996293;28;20065;-72
2021/12/29 00:07:27;;;;;;;27.88;11.48;;;8.40;99.90;;;;;;4996363;28;20453;-75
2021/12/29 00:09:54;;;;;;;27.48;10.93;;;8.20;99.90;;;;;;4996325;28;20044;-73
2021/12/29 00:12:25;;;;;;;56.63;14.25;;;8.50;99.90;;;;;;4995799;28;20461;-74
2021/12/29 00:14:52;;;;;;;40.53;12.35;;;8.60;99.90;;;;;;5011443;28;20037;-73
2021/12/29 00:17:18;;;;;;;38.90;13.95;;;8.30;99.90;;;;;;5012612;28;20119;-73
2021/12/29 00:19:44;;;;;;;45.88;14.05;;;8.70;99.90;;;;;;5012342;28;20470;-75
2021/12/29 00:22:09;;;;;;;49.92;14.93;;;8.70;99.90;;;;;;5012663;28;20037;-76
2021/12/29 00:24:35;;;;;;;35.85;13.07;;;8.20;99.90;;;;;;5011484;28;20048;-73
2021/12/29 00:27:04;;;;;;;44.45;13.07;;;8.60;99.90;;;;;;5012697;28;20049;-74
2021/12/29 00:29:30;;;;;;;32.15;11.80;;;8.60;99.90;;;;;;5012240;28;20076;-73
2021/12/29 00:31:55;;;;;;;56.13;13.02;;;8.40;99.90;;;;;;5011341;28;20076;-74
2021/12/29 00:34:21;;;;;;;46.85;11.82;;;8.30;99.90;;;;;;5009882;28;20075;-72
2021/12/29 00:36:47;;;;;;;44.83;12.02;;;8.30;99.90;;;;;;5011262;28;20133;-74
2021/12/29 00:39:12;;;;;;;74.97;14.07;;;8.60;99.90;;;;;;4994509;28;20041;-73
2021/12/29 00:41:38;;;;;;;88.85;15.38;;;8.30;99.90;;;;;;5012035;28;20141;-74
2021/12/29 00:44:06;;;;;;;54.03;12.02;;;7.90;99.90;;;;;;5012698;28;20045;-73
2021/12/29 00:46:33;;;;;;;52.05;11.88;;;8.50;99.90;;;;;;5012374;28;20064;-76
2021/12/29 00:48:59;;;;;;;39.92;10.38;;;8.40;99.90;;;;;;5011936;28;20041;-75
2021/12/29 00:51:25;;;;;;;75.97;12.68;;;8.30;99.90;;;;;;5021897;28;20049;-72
2021/12/29 00:53:50;;;;;;;26.90;9.02;;;8.10;99.90;;;;;;5012000;28;20053;-73
2021/12/29 00:56:16;;;;;;;21.70;8.77;;;8.50;99.90;;;;;;5011901;28;20047;-73
2021/12/29 00:58:42;;;;;;;51.17;10.77;;;8.10;99.90;;;;;;4979417;28;20128;-73
2021/12/29 01:01:07;;;;;;;31.45;9.45;;;8.10;99.90;;;;;;5012198;28;20049;-73
2021/12/29 01:03:34;;;;;;;22.17;8.25;;;8.50;99.90;;;;;;5012141;28;20456;-75
2021/12/29 01:06:01;;;;;;;28.83;10.23;;;8.30;99.90;;;;;;5011430;28;20072;-74
2021/12/29 01:08:26;;;;;;;25.30;9.25;;;8.50;99.90;;;;;;5012287;28;20073;-73
2021/12/29 01:10:52;;;;;;;29.48;9.00;;;8.30;99.90;;;;;;5011773;28;20107;-73
2021/12/29 01:13:28;;;;;;;27.23;9.00;;;8.10;99.90;;;;;;5013188;28;20454;-73
2021/12/29 01:16:08;;;;;;;27.25;9.10;;;8.30;99.90;;;;;;5011053;28;20379;-74
2021/12/29 01:18:36;;;;;;;32.15;9.00;;;8.10;99.90;;;;;;5011689;28;20155;-73
2021/12/29 01:21:04;;;;;;;31.50;10.30;;;8.60;99.90;;;;;;4994160;28;20037;-73
2021/12/29 01:23:30;;;;;;;29.10;9.88;;;8.20;99.90;;;;;;5010972;28;20037;-73
2021/12/29 01:25:56;;;;;;;50.15;11.90;;;8.60;99.90;;;;;;5009397;28;20049;-72
2021/12/29 01:28:21;;;;;;;36.97;10.10;;;8.40;99.90;;;;;;4997349;28;20574;-73
2021/12/29 01:30:47;;;;;;;28.05;8.75;;;8.40;99.90;;;;;;5015939;28;20369;-73
2021/12/29 01:33:13;;;;;;;35.42;9.85;;;8.50;99.90;;;;;;5032695;28;20049;-73
2021/12/29 01:35:41;;;;;;;34.22;9.85;;;8.20;99.90;;;;;;4982130;28;20092;-74
2021/12/29 01:38:08;;;;;;;36.00;9.85;;;8.30;99.90;;;;;;5014899;28;20037;-74
2021/12/29 01:40:35;;;;;;;38.22;10.07;;;8.30;99.90;;;;;;5015867;28;20393;-72
2021/12/29 01:43:05;;;;;;;46.40;11.27;;;8.50;99.90;;;;;;5014236;28;20042;-73
2021/12/29 01:45:31;;;;;;;39.88;10.00;;;8.20;99.90;;;;;;5031513;28;20088;-73
2021/12/29 01:47:59;;;;;;;39.83;10.98;;;8.20;99.90;;;;;;5015176;28;20378;-72
2021/12/29 01:50:25;;;;;;;40.92;11.57;;;8.70;99.90;;;;;;5015108;28;20454;-75
2021/12/29 01:52:56;;;;;;;42.78;11.95;;;8.30;99.90;;;;;;5015656;28;20075;-74
2021/12/29 01:55:25;;;;;;;51.95;13.60;;;8.60;99.90;;;;;;5015742;28;20033;-74
2021/12/29 01:57:52;;;;;;;44.42;12.43;;;8.40;99.90;;;;;;4998666;28;20049;-75
2021/12/29 02:00:21;;;;;;;48.33;12.70;;;8.80;99.90;;;;;;5002591;28;20060;-75
2021/12/29 02:02:47;;;;;;;39.90;12.35;;;8.60;99.90;;;;;;5014729;28;20056;-74
2021/12/29 02:05:13;;;;;;;44.58;13.00;;;8.70;99.90;;;;;;5015681;28;20611;-73
2021/12/29 02:07:40;;;;;;;49.10;14.32;;;8.30;99.90;;;;;;5014598;28;20041;-74
2021/12/29 02:10:08;;;;;;;43.90;13.55;;;8.60;99.90;;;;;;5015473;28;20064;-74
2021/12/29 02:12:35;;;;;;;60.30;15.75;;;8.70;99.90;;;;;;5015291;28;20069;-75
2021/12/29 02:15:01;;;;;;;60.25;15.52;;;8.60;99.90;;;;;;4998530;28;20401;-75
2021/12/29 02:17:27;;;;;;;86.18;15.52;;;8.80;99.90;;;;;;5026351;28;20037;-76
2021/12/29 02:19:56;;;;;;;56.88;16.00;;;8.60;99.90;;;;;;4998375;28;20074;-73
2021/12/29 02:24:53;;;;;;;57.22;14.90;;;9.10;99.90;;;;;;4998733;28;20045;-73
2021/12/29 02:27:20;;;;;;;61.83;14.85;;;8.80;99.90;;;;;;5014761;28;20060;-73
2021/12/29 02:29:47;;;;;;;58.13;14.40;;;8.70;99.90;;;;;;4997368;28;20430;-72
2021/12/29 02:32:14;;;;;;;53.55;14.60;;;8.60;99.90;;;;;;4998267;28;20393;-73
2021/12/29 02:34:40;;;;;;;60.33;15.68;;;8.90;99.90;;;;;;5014725;28;20041;-73
2021/12/29 02:37:07;;;;;;;68.78;17.02;;;9.10;99.90;;;;;;5014294;28;20045;-75
2021/12/29 02:39:36;;;;;;;81.60;17.02;;;8.70;99.90;;;;;;5013446;28;20548;-73
2021/12/29 02:42:05;;;;;;;71.32;16.38;;;9.20;99.90;;;;;;4997532;28;20397;-73
2021/12/29 02:44:38;;;;;;;72.95;16.02;;;9.20;99.90;;;;;;5013274;28;20113;-72
2021/12/29 02:47:04;;;;;;;65.70;15.10;;;9.00;99.90;;;;;;5013226;28;20429;-74
2021/12/29 02:49:30;;;;;;;58.63;16.85;;;9.20;99.90;;;;;;5013188;28;20045;-74
2021/12/29 02:51:56;;;;;;;59.90;15.68;;;9.30;99.90;;;;;;4996269;28;20037;-74
2021/12/29 02:54:21;;;;;;;52.55;13.18;;;8.80;99.90;;;;;;5013929;28;20539;-74
2021/12/29 02:56:49;;;;;;;46.97;12.50;;;9.20;99.90;;;;;;5013993;28;20076;-72
2021/12/29 02:59:16;;;;;;;50.63;12.55;;;9.10;99.90;;;;;;4997279;28;20037;-73
2021/12/29 03:01:42;;;;;;;56.17;14.93;;;9.20;99.90;;;;;;4996760;28;20037;-74
2021/12/29 03:04:08;;;;;;;48.17;12.10;;;9.00;99.90;;;;;;5013558;28;20037;-74
2021/12/29 03:06:34;;;;;;;47.70;12.25;;;9.00;99.90;;;;;;4996602;28;20068;-75
2021/12/29 03:09:05;;;;;;;46.88;11.50;;;8.70;99.90;;;;;;5011799;28;20038;-74
2021/12/29 03:11:31;;;;;;;25.65;9.32;;;8.80;99.90;;;;;;5012409;28;20042;-74
2021/12/29 03:13:57;;;;;;;33.42;9.75;;;9.00;99.90;;;;;;4999887;28;20072;-76
2021/12/29 03:16:24;;;;;;;29.65;9.38;;;9.20;99.90;;;;;;4997370;28;20072;-74
2021/12/29 03:18:50;;;;;;;40.80;10.02;;;9.20;99.90;;;;;;4996220;28;20033;-75
2021/12/29 03:21:16;;;;;;;40.92;10.68;;;9.20;99.90;;;;;;5013282;28;20554;-73
2021/12/29 03:23:42;;;;;;;45.47;9.90;;;9.20;99.90;;;;;;5013860;28;20037;-73
2021/12/29 03:26:08;;;;;;;62.97;11.60;;;8.80;99.90;;;;;;5028534;28;20128;-74
2021/12/29 03:28:35;;;;;;;36.83;10.50;;;9.10;99.90;;;;;;5013482;28;20121;-75
2021/12/29 03:31:01;;;;;;;36.45;10.07;;;9.40;99.90;;;;;;5012364;28;20075;-76
2021/12/29 03:33:31;;;;;;;50.95;11.45;;;9.10;99.90;;;;;;4997236;28;20033;-75
2021/12/29 03:36:02;;;;;;;47.03;11.45;;;8.80;99.90;;;;;;5013638;28;20037;-74
2021/12/29 03:38:31;;;;;;;42.00;10.57;;;9.30;99.90;;;;;;5013542;28;20049;-73
2021/12/29 03:40:57;;;;;;;52.92;12.40;;;9.30;99.90;;;;;;5012287;28;20053;-75
2021/12/29 03:43:24;;;;;;;44.42;11.13;;;8.80;99.90;;;;;;4996826;28;20111;-76
2021/12/29 03:45:51;;;;;;;54.20;13.57;;;9.30;99.90;;;;;;5012854;28;20107;-73
2021/12/29 03:48:19;;;;;;;58.55;12.13;;;8.90;99.90;;;;;;5013084;28;20103;-73
2021/12/29 03:50:46;;;;;;;52.67;13.35;;;8.80;99.90;;;;;;5001943;28;20087;-73
2021/12/29 03:53:14;;;;;;;55.67;13.32;;;8.80;99.90;;;;;;5013391;28;20489;-75
2021/12/29 03:55:41;;;;;;;58.17;13.20;;;9.40;99.90;;;;;;4997200;28;20389;-73
2021/12/29 03:58:07;;;;;;;48.47;12.85;;;9.30;99.90;;;;;;5012793;28;20497;-75
2021/12/29 04:00:33;;;;;;;55.03;14.00;;;9.40;99.90;;;;;;5012855;28;20038;-73
2021/12/29 04:02:58;;;;;;;54.83;14.45;;;9.40;99.90;;;;;;5012685;28;20191;-73
2021/12/29 04:05:24;;;;;;;53.53;15.80;;;8.80;99.90;;;;;;5013432;28;20053;-75
2021/12/29 04:07:53;;;;;;;61.30;14.35;;;8.80;99.90;;;;;;4995161;28;20509;-74
2021/12/29 04:10:19;;;;;;;54.67;15.77;;;9.10;99.90;;;;;;5029287;28;20044;-73
2021/12/29 04:12:46;;;;;;;63.83;17.33;;;9.30;99.90;;;;;;5012274;28;20370;-75
2021/12/29 04:15:13;;;;;;;62.25;16.45;;;9.00;99.90;;;;;;5012609;28;20042;-76
2021/12/29 04:17:40;;;;;;;59.10;16.77;;;8.80;99.90;;;;;;5012604;28;20052;-75
2021/12/29 04:23:05;;;;;;;74.32;17.83;;;9.10;99.90;;;;;;5011503;28;20520;-75
2021/12/29 04:25:35;;;;;;;60.53;17.25;;;9.20;99.90;;;;;;5011603;28;20120;-72
2021/12/29 04:28:01;;;;;;;66.80;19.20;;;9.20;99.90;;;;;;5028295;28;20741;-74
2021/12/29 04:30:27;;;;;;;72.07;17.27;;;9.40;99.90;;;;;;5012743;28;20131;-73
2021/12/29 04:32:53;;;;;;;71.90;16.85;;;9.00;99.90;;;;;;5011543;28;20092;-72
2021/12/29 04:35:23;;;;;;;66.35;15.98;;;9.20;99.90;;;;;;5012501;28;20124;-74
2021/12/29 04:37:50;;;;;;;61.78;15.30;;;9.20;99.90;;;;;;5012349;28;20076;-75
2021/12/29 04:40:16;;;;;;;52.65;15.50;;;9.40;99.90;;;;;;5012901;28;20132;-73
2021/12/29 04:42:42;;;;;;;54.20;15.77;;;9.30;99.90;;;;;;5012399;28;20045;-74
2021/12/29 04:45:08;;;;;;;62.30;14.68;;;8.90;99.90;;;;;;5012128;28;20064;-74
2021/12/29 04:47:39;;;;;;;52.35;13.70;;;9.40;99.90;;;;;;5012422;28;20048;-74
2021/12/29 04:50:13;;;;;;;56.20;14.07;;;9.00;99.90;;;;;;5011446;28;20042;-72
2021/12/29 04:52:39;;;;;;;50.23;13.87;;;9.40;99.90;;;;;;5011905;28;20037;-74
2021/12/29 04:55:07;;;;;;;51.72;13.63;;;8.90;99.90;;;;;;5010669;28;20120;-71
2021/12/29 04:57:33;;;;;;;51.58;16.02;;;9.00;99.90;;;;;;5012494;28;20037;-73
2021/12/29 04:59:59;;;;;;;44.05;12.88;;;9.30;99.90;;;;;;5012077;28;20128;-72
2021/12/29 05:02:24;;;;;;;57.95;15.52;;;8.90;99.90;;;;;;5015352;28;20560;-74
2021/12/29 05:04:59;;;;;;;59.97;14.55;;;8.90;99.90;;;;;;4999714;28;20123;-75
2021/12/29 05:10:09;;;;;;;52.08;15.55;;;9.40;99.90;;;;;;4992186;28;20056;-76
2021/12/29 05:12:35;;;;;;;47.30;14.75;;;9.00;99.90;;;;;;5016355;28;20034;-73
2021/12/29 05:15:00;;;;;;;60.80;16.60;;;8.80;99.90;;;;;;5015584;28;20041;-73
2021/12/29 05:17:26;;;;;;;56.38;15.25;;;9.30;99.90;;;;;;4999507;28;20033;-74
2021/12/29 05:19:52;;;;;;;61.63;17.08;;;9.40;99.90;;;;;;4997373;28;20162;-73
2021/12/29 05:22:18;;;;;;;57.00;15.88;;;9.00;99.90;;;;;;4999057;28;20045;-73
2021/12/29 05:24:43;;;;;;;65.00;17.13;;;8.90;99.90;;;;;;5012812;28;20048;-74
2021/12/29 05:27:09;;;;;;;66.30;17.27;;;9.00;99.90;;;;;;4999263;28;20492;-73
2021/12/29 05:29:35;;;;;;;65.30;17.38;;;9.00;99.90;;;;;;5016102;28;20041;-73
2021/12/29 05:32:01;;;;;;;55.35;16.27;;;9.30;99.90;;;;;;5030003;28;20052;-72
2021/12/29 05:34:27;;;;;;;72.65;18.02;;;9.00;99.90;;;;;;4999577;28;20071;-74
2021/12/29 05:36:52;;;;;;;44.42;13.35;;;9.50;99.90;;;;;;5016092;28;20702;-74
2021/12/29 05:39:18;;;;;;;50.85;16.58;;;9.40;99.90;;;;;;5015264;28;20049;-74
2021/12/29 05:41:44;;;;;;;57.67;15.57;;;9.20;99.90;;;;;;5015582;28;20065;-73
2021/12/29 05:44:10;;;;;;;47.88;14.98;;;9.50;99.90;;;;;;5014967;28;20379;-73
2021/12/29 05:46:35;;;;;;;50.95;15.25;;;9.00;99.90;;;;;;5015247;28;20064;-74
2021/12/29 05:49:01;;;;;;;46.90;14.82;;;9.00;99.90;;;;;;5014883;28;20042;-74
2021/12/29 05:51:27;;;;;;;58.80;15.85;;;9.40;99.90;;;;;;5014643;28;20030;-73
2021/12/29 05:53:52;;;;;;;60.42;15.70;;;9.60;99.90;;;;;;4998079;28;20045;-73
2021/12/29 05:56:18;;;;;;;61.63;15.75;;;9.50;99.90;;;;;;5015135;28;20038;-73
2021/12/29 05:58:44;;;;;;;48.80;14.63;;;9.10;99.90;;;;;;5014953;28;20080;-73
2021/12/29 06:01:10;;;;;;;49.58;14.38;;;9.40;99.90;;;;;;5015118;28;20037;-76
2021/12/29 06:03:37;;;;;;;45.90;14.60;;;9.10;99.90;;;;;;4998506;28;20045;-73
2021/12/29 06:06:03;;;;;;;50.15;14.88;;;9.20;99.90;;;;;;5012369;28;20080;-74
2021/12/29 06:08:29;;;;;;;47.08;14.20;;;9.30;99.90;;;;;;5031763;28;20037;-76
2021/12/29 06:10:55;;;;;;;44.47;14.60;;;9.60;99.90;;;;;;5014518;28;20037;-77
2021/12/29 06:13:21;;;;;;;50.35;14.70;;;9.60;99.90;;;;;;5013801;28;20037;-76
2021/12/29 06:15:46;;;;;;;40.63;13.65;;;9.10;99.90;;;;;;5015230;28;20393;-73
2021/12/29 06:18:12;;;;;;;48.25;15.30;;;9.40;99.90;;;;;;5014564;28;20049;-74
2021/12/29 06:20:38;;;;;;;50.35;14.32;;;9.30;99.90;;;;;;4998547;28;20175;-74
2021/12/29 06:23:12;;;;;;;48.05;14.93;;;9.60;99.90;;;;;;5014407;28;20053;-73
2021/12/29 06:25:38;;;;;;;40.42;13.45;;;9.00;99.90;;;;;;5013885;28;20076;-74
2021/12/29 06:28:04;;;;;;;49.45;14.10;;;9.50;99.90;;;;;;5012624;28;20050;-73
2021/12/29 06:30:31;;;;;;;57.67;16.30;;;9.70;99.90;;;;;;5014829;28;20053;-75
2021/12/29 06:32:56;;;;;;;38.60;14.00;;;9.50;99.90;;;;;;5014811;28;20060;-73
2021/12/29 06:35:22;;;;;;;44.75;14.18;;;9.40;99.90;;;;;;4998275;28;20037;-71
2021/12/29 06:37:48;;;;;;;37.97;15.13;;;9.60;99.90;;;;;;5014394;28;20045;-72
2021/12/29 06:40:15;;;;;;;38.78;13.98;;;9.20;99.90;;;;;;5014316;28;20080;-71
2021/12/29 06:42:42;;;;;;;44.22;14.88;;;9.70;99.90;;;;;;4998351;28;20118;-72
2021/12/29 06:45:08;;;;;;;57.45;17.95;;;9.10;99.90;;;;;;5013656;28;20159;-70
2021/12/29 06:47:34;;;;;;;58.58;17.73;;;9.70;99.90;;;;;;5013966;28;20046;-70
2021/12/29 06:50:00;;;;;;;53.28;17.42;;;9.80;99.90;;;;;;5014843;28;20038;-73
2021/12/29 06:52:26;;;;;;;53.03;17.33;;;9.20;99.90;;;;;;5014498;28;20507;-72
2021/12/29 06:54:51;;;;;;;62.20;19.27;;;9.70;99.90;;;;;;4981701;28;20037;-74
2021/12/29 06:57:17;;;;;;;66.28;18.00;;;9.60;99.90;;;;;;5013216;28;20030;-73
2021/12/29 06:59:43;;;;;;;57.00;17.40;;;9.70;99.90;;;;;;4997815;28;20053;-72
2021/12/29 07:02:10;;;;;;;59.63;17.02;;;9.40;99.90;;;;;;5011427;28;20044;-72
2021/12/29 07:04:36;;;;;;;50.22;16.30;;;9.10;99.90;;;;;;5014804;28;20039;-72
2021/12/29 07:07:02;;;;;;;64.50;18.15;;;9.10;99.90;;;;;;4998666;28;20049;-74
2021/12/29 07:09:28;;;;;;;55.63;16.35;;;9.60;99.90;;;;;;5015630;28;20394;-72
2021/12/29 07:11:54;;;;;;;58.25;16.50;;;9.50;99.90;;;;;;5015703;28;20045;-72
2021/12/29 07:14:21;;;;;;;58.67;16.40;;;9.20;99.90;;;;;;5015702;28;20037;-72
2021/12/29 07:16:49;;;;;;;61.00;18.27;;;9.10;99.90;;;;;;5015237;28;20124;-73
2021/12/29 07:19:16;;;;;;;71.95;16.42;;;9.70;99.90;;;;;;5015618;28;20519;-73
2021/12/29 07:21:42;;;;;;;62.25;16.17;;;9.30;99.90;;;;;;5016396;28;20082;-73
2021/12/29 07:24:08;;;;;;;64.75;17.40;;;9.20;99.90;;;;;;5015521;28;20064;-72
2021/12/29 07:26:34;;;;;;;82.93;17.55;;;9.20;99.90;;;;;;5015150;28;20045;-73
2021/12/29 07:29:01;;;;;;;69.22;17.15;;;9.50;99.90;;;;;;5015130;28;20045;-74
2021/12/29 07:31:27;;;;;;;72.30;19.15;;;9.70;99.90;;;;;;5015258;28;20060;-73
2021/12/29 07:33:54;;;;;;;70.03;17.95;;;9.60;99.90;;;;;;4999296;28;20029;-72
2021/12/29 07:36:19;;;;;;;80.93;19.75;;;9.30;99.90;;;;;;5014565;28;20037;-73
2021/12/29 07:38:45;;;;;;;68.63;17.33;;;9.60;99.90;;;;;;4999183;28;20486;-72
2021/12/29 07:41:12;;;;;;;64.85;18.85;;;9.60;99.90;;;;;;4999414;28;20381;-74
2021/12/29 07:43:39;;;;;;;78.38;19.45;;;9.70;99.90;;;;;;5015202;28;20037;-73
2021/12/29 07:46:05;;;;;;;101.43;20.77;;;9.80;99.90;;;;;;5014680;28;20512;-73
2021/12/29 07:48:32;;;;;;;77.80;19.05;;;9.30;99.90;;;;;;5013839;28;20107;-73
2021/12/29 07:51:00;;;;;;;82.22;20.10;;;9.40;99.90;;;;;;5015266;28;20160;-72
2021/12/29 07:53:26;;;;;;;70.10;17.92;;;9.30;99.90;;;;;;5014867;28;20056;-73
2021/12/29 07:55:52;;;;;;;74.35;18.95;;;9.70;99.90;;;;;;4998662;28;20037;-73
2021/12/29 07:58:18;;;;;;;77.82;18.90;;;9.30;99.90;;;;;;5014789;28;20393;-72
2021/12/29 08:00:45;;;;;;;76.47;17.50;;;9.20;99.90;;;;;;5014825;28;20056;-73
2021/12/29 08:03:14;;;;;;;72.45;16.63;;;9.50;99.90;;;;;;4979876;28;20041;-72
2021/12/29 08:05:41;;;;;;;73.07;17.33;;;9.40;99.90;;;;;;5015370;28;20095;-72
2021/12/29 08:08:07;;;;;;;80.70;18.60;;;9.80;99.90;;;;;;5014073;28;20081;-74
2021/12/29 08:10:34;;;;;;;79.22;17.95;;;9.50;99.90;;;;;;5014903;28;20107;-73
2021/12/29 08:13:01;;;;;;;73.45;16.80;;;9.60;99.90;;;;;;4998450;28;20366;-73
2021/12/29 08:15:27;;;;;;;83.03;19.27;;;9.50;99.90;;;;;;5030757;28;20065;-73
2021/12/29 08:17:53;;;;;;;77.43;19.55;;;9.60;99.90;;;;;;5010839;28;20077;-72
2021/12/29 08:20:19;;;;;;;68.40;16.58;;;9.50;99.90;;;;;;5013499;28;20048;-74
2021/12/29 08:22:45;;;;;;;80.18;17.25;;;9.30;99.90;;;;;;4998050;28;20034;-72
2021/12/29 08:25:10;;;;;;;120.55;20.38;;;9.80;99.90;;;;;;5014217;28;20389;-74
2021/12/29 08:27:36;;;;;;;118.82;21.08;;;9.60;99.90;;;;;;5013542;28;20045;-73
2021/12/29 08:30:05;;;;;;;116.10;20.58;;;9.70;99.90;;;;;;4997448;28;20037;-73
2021/12/29 08:32:31;;;;;;;100.63;20.40;;;9.70;99.90;;;;;;4997145;28;20038;-74
2021/12/29 08:34:56;;;;;;;72.97;17.88;;;9.60;99.90;;;;;;4998161;28;20030;-75
2021/12/29 08:37:22;;;;;;;71.30;16.85;;;9.30;99.90;;;;;;5013460;28;20420;-73
2021/12/29 08:39:48;;;;;;;82.35;17.75;;;9.20;99.90;;;;;;5014492;28;20129;-72
2021/12/29 08:42:14;;;;;;;71.15;16.90;;;9.60;99.90;;;;;;4997438;28;20045;-73
2021/12/29 08:44:39;;;;;;;93.10;16.42;;;9.70;99.90;;;;;;4997453;28;20048;-73
2021/12/29 08:47:05;;;;;;;95.55;18.30;;;9.20;99.90;;;;;;4981318;28;20068;-74
2021/12/29 08:49:31;;;;;;;63.25;15.15;;;9.60;99.90;;;;;;5013377;28;20079;-75
2021/12/29 08:51:57;;;;;;;59.58;14.95;;;9.60;99.90;;;;;;4997074;28;20057;-73
2021/12/29 08:54:24;;;;;;;62.42;15.05;;;9.50;99.90;;;;;;4997256;28;20091;-73
2021/12/29 08:56:51;;;;;;;61.22;14.30;;;9.50;99.90;;;;;;5014732;28;20041;-73
2021/12/29 08:59:17;;;;;;;68.15;13.60;;;9.20;99.90;;;;;;4997833;28;20497;-72
2021/12/29 09:01:43;;;;;;;58.42;13.85;;;9.30;99.90;;;;;;4997890;28;20052;-74
2021/12/29 09:04:09;;;;;;;62.90;13.07;;;9.70;99.90;;;;;;5013119;28;20048;-73
2021/12/29 09:06:35;;;;;;;61.30;13.73;;;9.70;99.90;;;;;;5014065;28;20046;-72
2021/12/29 09:09:01;;;;;;;71.30;14.55;;;9.70;99.90;;;;;;5013757;28;20477;-74
2021/12/29 09:11:29;;;;;;;47.00;13.77;;;9.80;99.90;;;;;;4996932;28;20045;-72
2021/12/29 09:13:55;;;;;;;68.15;14.45;;;9.50;99.90;;;;;;5013623;28;20113;-74
2021/12/29 09:16:22;;;;;;;41.60;12.68;;;9.70;99.90;;;;;;5012969;28;20527;-72
2021/12/29 09:18:48;;;;;;;62.90;14.45;;;9.90;99.90;;;;;;5012096;28;20045;-75
2021/12/29 09:21:16;;;;;;;56.28;13.85;;;9.40;99.90;;;;;;4995038;28;20126;-71
2021/12/29 09:23:43;;;;;;;49.45;13.88;;;9.80;99.90;;;;;;5011058;28;20397;-75
2021/12/29 09:26:11;;;;;;;50.90;13.30;;;9.40;99.90;;;;;;4996186;28;20480;-74
2021/12/29 09:28:37;;;;;;;58.20;14.23;;;9.50;99.90;;;;;;5011464;28;20041;-73
2021/12/29 09:31:03;;;;;;;53.38;13.82;;;9.30;99.90;;;;;;5011888;28;20455;-74
2021/12/29 09:33:29;;;;;;;75.95;15.13;;;9.60;99.90;;;;;;5010563;28;20076;-72
2021/12/29 09:35:59;;;;;;;68.70;14.60;;;9.40;99.90;;;;;;4978908;28;20092;-74
2021/12/29 09:38:25;;;;;;;59.25;13.30;;;10.00;99.90;;;;;;4994218;28;20598;-72
2021/12/29 09:40:52;;;;;;;76.20;14.73;;;9.50;99.90;;;;;;5012201;28;20409;-72
2021/12/29 09:43:18;;;;;;;58.78;13.70;;;10.00;99.90;;;;;;4999203;28;20071;-72
2021/12/29 09:45:46;;;;;;;69.57;14.02;;;9.80;99.90;;;;;;5011599;28;20058;-73
2021/12/29 09:48:13;;;;;;;65.65;14.27;;;9.50;99.90;;;;;;5011481;28;20045;-73
2021/12/29 09:50:39;;;;;;;59.75;12.25;;;9.50;99.90;;;;;;5014040;28;20040;-72
2021/12/29 09:53:06;;;;;;;68.20;13.45;;;10.00;99.90;;;;;;5011050;28;20053;-73
2021/12/29 09:55:33;;;;;;;71.93;13.02;;;9.60;99.90;;;;;;4997281;28;20041;-74
2021/12/29 09:58:00;;;;;;;59.85;11.48;;;9.60;99.90;;;;;;5009393;28;20753;-73
2021/12/29 10:00:40;;;;;;;79.57;13.82;;;9.60;99.90;;;;;;5022544;28;20046;-74
2021/12/29 10:03:08;;;;;;;74.82;13.20;;;9.60;99.90;;;;;;5005385;28;20152;-73
2021/12/29 10:05:36;;;;;;;46.13;11.68;;;10.10;99.90;;;;;;5007285;28;20080;-73
2021/12/29 10:08:16;;;;;;;62.55;11.77;;;9.80;99.90;;;;;;5006373;28;20041;-73
2021/12/29 10:10:49;;;;;;;54.17;13.15;;;9.90;99.90;;;;;;5007033;28;20041;-73
2021/12/29 10:13:15;;;;;;;61.45;12.18;;;9.80;99.90;;;;;;5006803;28;20095;-72
2021/12/29 10:15:47;;;;;;;72.10;13.40;;;9.80;99.90;;;;;;5006512;28;20045;-73
2021/12/29 10:18:16;;;;;;;61.58;12.63;;;9.90;99.90;;;;;;4990365;28;20071;-71
2021/12/29 10:20:57;;;;;;;48.90;10.75;;;10.40;99.90;;;;;;5006808;28;20099;-72
2021/12/29 10:23:29;;;;;;;43.15;9.98;;;10.30;99.90;;;;;;5006484;28;20126;-73
2021/12/29 10:26:03;;;;;;;36.38;9.65;;;10.30;99.90;;;;;;5005663;28;20049;-73
2021/12/29 10:28:31;;;;;;;30.40;9.43;;;10.50;99.90;;;;;;4989555;28;20041;-76
2021/12/29 10:31:05;;;;;;;30.70;8.70;;;10.30;99.90;;;;;;5006842;28;20525;-73
2021/12/29 10:33:37;;;;;;;30.67;8.63;;;10.10;99.90;;;;;;5006122;28;20672;-73
2021/12/29 10:36:30;;;;;;;29.65;9.32;;;10.30;99.90;;;;;;5006349;28;20052;-73
2021/12/29 10:39:14;;;;;;;29.15;9.23;;;10.00;99.90;;;;;;4999506;28;20405;-73
2021/12/29 10:42:01;;;;;;;31.48;9.02;;;10.20;99.90;;;;;;5013655;28;20111;-72
2021/12/29 10:44:31;;;;;;;29.92;9.32;;;10.60;99.90;;;;;;5005989;28;20049;-71
2021/12/29 10:46:59;;;;;;;22.67;8.40;;;10.40;99.90;;;;;;5007235;28;20068;-73
2021/12/29 10:49:27;;;;;;;26.85;9.32;;;10.50;99.90;;;;;;5006816;28;20056;-71
2021/12/29 10:51:56;;;;;;;25.10;9.07;;;10.20;99.90;;;;;;5006926;28;20052;-73
2021/12/29 10:54:25;;;;;;;27.52;8.55;;;10.10;99.90;;;;;;5006325;28;20037;-73
2021/12/29 10:57:06;;;;;;;22.92;7.47;;;10.10;99.90;;;;;;4990870;28;20055;-72
2021/12/29 10:59:38;;;;;;;21.60;8.45;;;10.20;99.90;;;;;;5005805;28;20049;-74
2021/12/29 11:02:05;;;;;;;18.08;8.25;;;10.20;99.90;;;;;;4986069;28;20780;-73
2021/12/29 11:04:31;;;;;;;22.30;8.45;;;10.00;99.90;;;;;;5005617;28;20144;-73
2021/12/29 11:06:57;;;;;;;19.60;8.25;;;10.40;99.90;;;;;;5013406;28;20459;-72
2021/12/29 11:09:35;;;;;;;26.23;9.65;;;10.60;99.90;;;;;;5008259;28;20794;-74
2021/12/29 11:12:09;;;;;;;21.20;7.68;;;10.30;99.90;;;;;;5009780;28;20041;-72
2021/12/29 11:14:37;;;;;;;23.43;8.50;;;10.40;99.90;;;;;;5006182;28;20044;-72
2021/12/29 11:17:23;;;;;;;20.92;7.78;;;10.70;99.90;;;;;;5014507;28;20041;-72
2021/12/29 11:19:59;;;;;;;18.60;7.85;;;10.60;99.90;;;;;;5006250;28;20133;-74
2021/12/29 11:22:28;;;;;;;19.80;8.65;;;10.70;99.90;;;;;;5013238;28;20548;-74
2021/12/29 11:25:00;;;;;;;20.40;8.05;;;10.30;99.90;;;;;;5005687;28;20049;-72
2021/12/29 11:27:28;;;;;;;20.45;8.43;;;10.00;99.90;;;;;;5022839;28;20144;-73
2021/12/29 11:29:59;;;;;;;22.40;8.25;;;10.20;99.90;;;;;;5006484;28;20042;-73
2021/12/29 11:32:35;;;;;;;30.27;9.10;;;10.10;99.90;;;;;;4988844;28;20749;-74
2021/12/29 11:35:10;;;;;;;20.48;8.35;;;10.60;99.90;;;;;;5005407;28;20127;-74
2021/12/29 11:37:38;;;;;;;30.77;8.95;;;10.50;99.90;;;;;;5006388;28;20064;-74
2021/12/29 11:40:06;;;;;;;21.20;8.65;;;10.10;99.90;;;;;;5006017;28;20132;-73
2021/12/29 11:42:32;;;;;;;25.00;9.10;;;9.90;99.90;;;;;;5005785;28;20033;-73
2021/12/29 11:44:58;;;;;;;21.08;8.27;;;9.90;99.90;;;;;;5005191;28;20682;-73
2021/12/29 11:47:24;;;;;;;23.80;9.15;;;10.20;99.90;;;;;;5006162;28;20056;-74
2021/12/29 11:49:49;;;;;;;19.15;8.73;;;10.10;99.90;;;;;;5005662;28;20049;-74
2021/12/29 11:52:29;;;;;;;19.10;8.02;;;10.10;99.90;;;;;;5006434;28;20048;-75
2021/12/29 11:55:32;;;;;;;20.80;8.65;;;10.60;99.90;;;;;;5006431;28;20064;-74
2021/12/29 11:58:24;;;;;;;16.58;7.90;;;10.10;99.90;;;;;;4998326;28;20053;-73
2021/12/29 12:01:07;;;;;;;19.75;8.32;;;10.10;99.90;;;;;;5005707;28;20048;-72
2021/12/29 12:03:53;;;;;;;22.17;7.70;;;10.60;99.90;;;;;;5005579;28;20041;-74
2021/12/29 12:06:23;;;;;;;;;;;10.10;99.90;;;;;;4989398;28;20049;-74
2021/12/29 12:08:59;;;;;;;22.67;8.27;;;10.30;99.90;;;;;;4988463;28;19931;-73
2021/12/29 12:11:26;;;;;;;25.05;9.35;;;10.10;99.90;;;;;;4990787;28;20087;-72
2021/12/29 12:13:52;;;;;;;22.75;8.20;;;10.20;99.90;;;;;;5024646;28;20095;-73
2021/12/29 12:16:19;;;;;;;20.60;8.45;;;10.10;99.90;;;;;;4998135;28;20424;-74
2021/12/29 12:18:57;;;;;;;22.40;8.20;;;10.00;99.90;;;;;;4995481;28;20486;-73
2021/12/29 12:21:30;;;;;;;20.73;7.78;;;10.70;99.90;;;;;;4996142;28;20052;-73
2021/12/29 12:24:26;;;;;;;20.05;8.20;;;10.60;99.90;;;;;;5004972;28;20049;-72
2021/12/29 12:27:03;;;;;;;24.25;8.65;;;10.70;99.90;;;;;;4978094;28;20158;-73
2021/12/29 12:29:32;;;;;;;19.90;9.27;;;10.10;99.90;;;;;;5005871;28;20049;-72
2021/12/29 12:32:06;;;;;;;25.55;8.90;;;10.60;99.90;;;;;;5008107;28;20096;-73
2021/12/29 12:34:34;;;;;;;28.02;8.73;;;10.60;99.90;;;;;;5021849;28;20095;-75
2021/12/29 12:37:11;;;;;;;22.63;7.80;;;10.50;99.90;;;;;;5007460;28;20037;-73
2021/12/29 12:39:37;;;;;;;24.90;9.07;;;10.10;99.90;;;;;;5005283;28;20041;-74
2021/12/29 12:42:03;;;;;;;19.75;8.50;;;10.50;99.90;;;;;;4991519;28;20500;-73
2021/12/29 12:44:35;;;;;;;19.15;7.82;;;10.00;99.90;;;;;;5008745;28;20045;-73
2021/12/29 12:47:14;;;;;;;21.10;7.43;;;10.40;99.90;;;;;;5014943;28;20426;-74
2021/12/29 12:49:49;;;;;;;15.68;6.93;;;10.50;99.90;;;;;;5005104;28;20425;-73